sensor_id;sensor_type;location;lat;lon;timestamp;P1;durP1;ratioP1;P2;durP2;ratioP2
21488;SDS011;10906;45.194;5.684;2023-07-08T05:10:19;18.00;;;6.50;;
21488;SDS011;10906;45.194;5.684;2023-07-08T05:13:05;9.30;;;5.63;;
21488;SDS011;10906;45.194;5.684;2023-07-08T05:15:49;10.88;;;5.53;;
21488;SDS011;10906;45.194;5.684;2023-07-08T05:18:34;8.93;;;5.30;;
21488;SDS011;10906;45.194;5.684;2023-07-08T05:21:19;8.00;;;5.20;;
21488;SDS011;10906;45.194;5.684;2023-07-08T05:24:04;13.63;;;5.68;;
21488;SDS011;10906;45.194;5.684;2023-07-08T05:26:49;9.85;;;5.07;;
21488;SDS011;10906;45.194;5.684;2023-07-08T05:29:34;15.40;;;5.05;;
21488;SDS011;10906;45.194;5.684;2023-07-08T05:32:19;11.00;;;5.03;;
21488;SDS011;10906;45.194;5.684;2023-07-08T05:35:04;14.02;;;4.93;;
21488;SDS011;10906;45.194;5.684;2023-07-08T05:37:49;10.93;;;5.40;;
21488;SDS011;10906;45.194;5.684;2023-07-08T05:40:33;14.02;;;4.85;;
21488;SDS011;10906;45.194;5.684;2023-07-08T05:43:18;10.25;;;5.03;;
21488;SDS011;10906;45.194;5.684;2023-07-08T05:46:02;10.55;;;5.30;;
21488;SDS011;10906;45.194;5.684;2023-07-08T05:48:47;9.20;;;5.43;;
21488;SDS011;10906;45.194;5.684;2023-07-08T05:51:33;12.05;;;4.82;;
21488;SDS011;10906;45.194;5.684;2023-07-08T05:54:17;11.07;;;5.85;;
21488;SDS011;10906;45.194;5.684;2023-07-08T05:57:02;8.32;;;4.85;;
21488;SDS011;10906;45.194;5.684;2023-07-08T05:59:46;9.23;;;4.90;;
21488;SDS011;10906;45.194;5.684;2023-07-08T06:02:31;12.38;;;5.53;;
21488;SDS011;10906;45.194;5.684;2023-07-08T06:05:15;11.25;;;5.57;;
21488;SDS011;10906;45.194;5.684;2023-07-08T06:08:00;10.48;;;4.95;;
21488;SDS011;10906;45.194;5.684;2023-07-08T06:10:45;7.28;;;4.63;;
21488;SDS011;10906;45.194;5.684;2023-07-08T06:13:30;9.73;;;5.32;;
21488;SDS011;10906;45.194;5.684;2023-07-08T06:16:15;12.73;;;4.80;;
21488;SDS011;10906;45.194;5.684;2023-07-08T06:18:59;13.52;;;5.32;;
21488;SDS011;10906;45.194;5.684;2023-07-08T06:21:44;11.02;;;5.00;;
21488;SDS011;10906;45.194;5.684;2023-07-08T06:24:28;11.80;;;5.07;;
21488;SDS011;10906;45.194;5.684;2023-07-08T06:27:13;11.27;;;4.85;;
21488;SDS011;10906;45.194;5.684;2023-07-08T06:33:39;16.33;;;5.88;;
21488;SDS011;10906;45.194;5.684;2023-07-08T06:36:24;10.98;;;5.32;;
21488;SDS011;10906;45.194;5.684;2023-07-08T06:39:08;11.85;;;5.55;;
21488;SDS011;10906;45.194;5.684;2023-07-08T06:41:55;11.35;;;4.97;;
21488;SDS011;10906;45.194;5.684;2023-07-08T06:44:39;11.15;;;5.28;;
21488;SDS011;10906;45.194;5.684;2023-07-08T06:54:29;8.35;;;4.53;;
21488;SDS011;10906;45.194;5.684;2023-07-08T06:57:14;10.00;;;5.43;;
21488;SDS011;10906;45.194;5.684;2023-07-08T06:59:59;9.90;;;5.15;;
21488;SDS011;10906;45.194;5.684;2023-07-08T07:02:44;8.73;;;4.70;;
21488;SDS011;10906;45.194;5.684;2023-07-08T07:05:28;9.18;;;4.75;;
21488;SDS011;10906;45.194;5.684;2023-07-08T07:08:13;12.55;;;4.57;;
21488;SDS011;10906;45.194;5.684;2023-07-08T07:10:57;9.70;;;4.72;;
21488;SDS011;10906;45.194;5.684;2023-07-08T07:13:42;7.35;;;4.57;;
21488;SDS011;10906;45.194;5.684;2023-07-08T07:16:27;9.95;;;4.80;;
21488;SDS011;10906;45.194;5.684;2023-07-08T07:19:11;11.63;;;5.15;;
21488;SDS011;10906;45.194;5.684;2023-07-08T07:21:56;6.82;;;4.15;;
21488;SDS011;10906;45.194;5.684;2023-07-08T07:24:41;11.98;;;5.03;;
21488;SDS011;10906;45.194;5.684;2023-07-08T07:27:26;8.73;;;5.25;;
21488;SDS011;10906;45.194;5.684;2023-07-08T07:30:11;9.57;;;5.15;;
21488;SDS011;10906;45.194;5.684;2023-07-08T07:33:00;12.57;;;4.90;;
21488;SDS011;10906;45.194;5.684;2023-07-08T07:35:45;7.32;;;4.72;;
21488;SDS011;10906;45.194;5.684;2023-07-08T07:38:29;8.32;;;4.25;;
21488;SDS011;10906;45.194;5.684;2023-07-08T07:41:14;7.90;;;4.50;;
21488;SDS011;10906;45.194;5.684;2023-07-08T07:43:59;9.15;;;4.40;;
21488;SDS011;10906;45.194;5.684;2023-07-08T07:46:43;9.25;;;4.50;;
21488;SDS011;10906;45.194;5.684;2023-07-08T07:49:29;7.80;;;4.85;;
21488;SDS011;10906;45.194;5.684;2023-07-08T07:52:14;12.38;;;5.47;;
21488;SDS011;10906;45.194;5.684;2023-07-08T07:55:03;7.32;;;4.68;;
21488;SDS011;10906;45.194;5.684;2023-07-08T07:57:48;11.98;;;5.05;;
21488;SDS011;10906;45.194;5.684;2023-07-08T08:00:32;11.50;;;4.80;;
21488;SDS011;10906;45.194;5.684;2023-07-08T08:03:17;10.15;;;4.60;;
21488;SDS011;10906;45.194;5.684;2023-07-08T08:06:02;11.93;;;5.45;;
21488;SDS011;10906;45.194;5.684;2023-07-08T08:08:46;10.88;;;4.88;;
21488;SDS011;10906;45.194;5.684;2023-07-08T08:11:32;9.98;;;5.30;;
21488;SDS011;10906;45.194;5.684;2023-07-08T08:14:18;8.20;;;4.50;;
21488;SDS011;10906;45.194;5.684;2023-07-08T08:17:03;12.40;;;5.15;;
21488;SDS011;10906;45.194;5.684;2023-07-08T08:19:47;11.00;;;5.20;;
21488;SDS011;10906;45.194;5.684;2023-07-08T08:22:32;10.18;;;5.25;;
21488;SDS011;10906;45.194;5.684;2023-07-08T08:25:17;8.98;;;4.80;;
21488;SDS011;10906;45.194;5.684;2023-07-08T08:28:03;14.65;;;5.00;;
21488;SDS011;10906;45.194;5.684;2023-07-08T08:39:31;9.35;;;4.65;;
21488;SDS011;10906;45.194;5.684;2023-07-08T08:42:18;10.63;;;5.45;;
21488;SDS011;10906;45.194;5.684;2023-07-08T08:45:11;6.85;;;4.82;;
21488;SDS011;10906;45.194;5.684;2023-07-08T08:48:02;12.90;;;5.35;;
21488;SDS011;10906;45.194;5.684;2023-07-08T08:50:59;7.75;;;4.88;;
21488;SDS011;10906;45.194;5.684;2023-07-08T08:54:03;10.57;;;5.15;;
21488;SDS011;10906;45.194;5.684;2023-07-08T09:02:38;7.28;;;5.05;;
21488;SDS011;10906;45.194;5.684;2023-07-08T09:05:31;10.13;;;5.00;;
21488;SDS011;10906;45.194;5.684;2023-07-08T09:08:32;10.05;;;5.32;;
21488;SDS011;10906;45.194;5.684;2023-07-08T09:14:26;10.85;;;4.75;;
21488;SDS011;10906;45.194;5.684;2023-07-08T09:17:31;12.10;;;5.60;;
21488;SDS011;10906;45.194;5.684;2023-07-08T09:20:22;9.35;;;5.28;;
21488;SDS011;10906;45.194;5.684;2023-07-08T09:23:19;10.67;;;5.67;;
21488;SDS011;10906;45.194;5.684;2023-07-08T09:26:06;11.18;;;5.15;;
21488;SDS011;10906;45.194;5.684;2023-07-08T09:28:56;12.02;;;5.65;;
21488;SDS011;10906;45.194;5.684;2023-07-08T09:31:41;11.52;;;5.60;;
21488;SDS011;10906;45.194;5.684;2023-07-08T09:37:47;6.80;;;4.78;;
21488;SDS011;10906;45.194;5.684;2023-07-08T09:40:33;7.68;;;5.53;;
21488;SDS011;10906;45.194;5.684;2023-07-08T09:43:23;8.65;;;4.63;;
21488;SDS011;10906;45.194;5.684;2023-07-08T09:46:22;12.23;;;5.60;;
21488;SDS011;10906;45.194;5.684;2023-07-08T09:49:21;8.82;;;4.93;;
21488;SDS011;10906;45.194;5.684;2023-07-08T09:52:14;8.75;;;5.00;;
21488;SDS011;10906;45.194;5.684;2023-07-08T09:54:59;9.32;;;4.93;;
21488;SDS011;10906;45.194;5.684;2023-07-08T10:03:36;7.10;;;4.53;;
21488;SDS011;10906;45.194;5.684;2023-07-08T10:06:22;8.57;;;4.43;;
21488;SDS011;10906;45.194;5.684;2023-07-08T10:09:11;9.00;;;4.32;;
21488;SDS011;10906;45.194;5.684;2023-07-08T10:12:02;9.37;;;5.50;;
21488;SDS011;10906;45.194;5.684;2023-07-08T10:34:19;14.27;;;4.57;;
21488;SDS011;10906;45.194;5.684;2023-07-08T10:40:22;8.20;;;4.88;;
21488;SDS011;10906;45.194;5.684;2023-07-08T10:43:24;10.98;;;4.63;;
21488;SDS011;10906;45.194;5.684;2023-07-08T10:50:07;10.20;;;4.90;;
21488;SDS011;10906;45.194;5.684;2023-07-08T10:59:34;10.60;;;5.10;;
21488;SDS011;10906;45.194;5.684;2023-07-08T11:02:38;9.38;;;4.70;;
21488;SDS011;10906;45.194;5.684;2023-07-08T11:05:44;7.55;;;4.57;;
21488;SDS011;10906;45.194;5.684;2023-07-08T11:08:32;11.63;;;4.72;;
21488;SDS011;10906;45.194;5.684;2023-07-08T11:14:11;8.77;;;4.72;;
21488;SDS011;10906;45.194;5.684;2023-07-08T11:17:11;8.98;;;4.80;;
21488;SDS011;10906;45.194;5.684;2023-07-08T11:23:00;9.52;;;4.68;;
21488;SDS011;10906;45.194;5.684;2023-07-08T11:26:17;8.98;;;4.65;;
21488;SDS011;10906;45.194;5.684;2023-07-08T11:37:16;10.40;;;4.95;;
21488;SDS011;10906;45.194;5.684;2023-07-08T11:43:46;13.60;;;4.93;;
21488;SDS011;10906;45.194;5.684;2023-07-08T11:50:42;10.00;;;5.18;;
21488;SDS011;10906;45.194;5.684;2023-07-08T11:59:04;9.23;;;4.85;;
21488;SDS011;10906;45.194;5.684;2023-07-08T12:04:55;8.52;;;4.93;;
21488;SDS011;10906;45.194;5.684;2023-07-08T12:07:46;8.95;;;5.05;;
21488;SDS011;10906;45.194;5.684;2023-07-08T12:10:37;9.40;;;5.20;;
21488;SDS011;10906;45.194;5.684;2023-07-08T12:13:24;9.00;;;5.10;;
21488;SDS011;10906;45.194;5.684;2023-07-08T12:16:12;8.95;;;4.65;;
21488;SDS011;10906;45.194;5.684;2023-07-08T12:19:00;7.18;;;4.50;;
21488;SDS011;10906;45.194;5.684;2023-07-08T12:21:48;7.22;;;4.57;;
21488;SDS011;10906;45.194;5.684;2023-07-08T12:24:32;9.13;;;4.85;;
21488;SDS011;10906;45.194;5.684;2023-07-08T12:27:17;8.32;;;5.10;;
21488;SDS011;10906;45.194;5.684;2023-07-08T12:30:02;7.72;;;4.18;;
21488;SDS011;10906;45.194;5.684;2023-07-08T12:32:47;8.70;;;4.68;;
21488;SDS011;10906;45.194;5.684;2023-07-08T12:35:32;8.60;;;5.25;;
21488;SDS011;10906;45.194;5.684;2023-07-08T12:38:21;8.88;;;4.65;;
21488;SDS011;10906;45.194;5.684;2023-07-08T12:41:13;6.90;;;4.28;;
21488;SDS011;10906;45.194;5.684;2023-07-08T12:44:01;10.30;;;5.35;;
21488;SDS011;10906;45.194;5.684;2023-07-08T12:46:47;9.82;;;5.03;;
21488;SDS011;10906;45.194;5.684;2023-07-08T12:49:33;10.13;;;4.88;;
21488;SDS011;10906;45.194;5.684;2023-07-08T12:52:21;13.70;;;5.07;;
21488;SDS011;10906;45.194;5.684;2023-07-08T12:55:08;6.55;;;4.50;;
21488;SDS011;10906;45.194;5.684;2023-07-08T12:57:54;8.57;;;5.05;;
21488;SDS011;10906;45.194;5.684;2023-07-08T13:03:08;7.10;;;4.40;;
21488;SDS011;10906;45.194;5.684;2023-07-08T13:06:05;8.27;;;5.13;;
21488;SDS011;10906;45.194;5.684;2023-07-08T13:08:53;10.48;;;4.82;;
21488;SDS011;10906;45.194;5.684;2023-07-08T13:14:31;10.02;;;5.47;;
21488;SDS011;10906;45.194;5.684;2023-07-08T13:20:28;11.02;;;4.72;;
21488;SDS011;10906;45.194;5.684;2023-07-08T13:23:13;10.15;;;4.72;;
21488;SDS011;10906;45.194;5.684;2023-07-08T13:25:58;9.70;;;5.15;;
21488;SDS011;10906;45.194;5.684;2023-07-08T13:28:43;6.78;;;4.55;;
21488;SDS011;10906;45.194;5.684;2023-07-08T13:31:34;8.70;;;4.78;;
21488;SDS011;10906;45.194;5.684;2023-07-08T13:34:23;9.07;;;5.78;;
21488;SDS011;10906;45.194;5.684;2023-07-08T13:37:12;9.57;;;4.53;;
21488;SDS011;10906;45.194;5.684;2023-07-08T13:39:57;8.00;;;4.72;;
21488;SDS011;10906;45.194;5.684;2023-07-08T13:42:51;12.40;;;5.18;;
21488;SDS011;10906;45.194;5.684;2023-07-08T13:45:36;10.75;;;5.10;;
21488;SDS011;10906;45.194;5.684;2023-07-08T13:51:18;11.32;;;5.03;;
21488;SDS011;10906;45.194;5.684;2023-07-08T13:54:24;7.53;;;4.25;;
21488;SDS011;10906;45.194;5.684;2023-07-08T13:57:16;10.27;;;4.93;;
21488;SDS011;10906;45.194;5.684;2023-07-08T14:00:03;10.70;;;4.88;;
21488;SDS011;10906;45.194;5.684;2023-07-08T14:02:50;7.88;;;5.00;;
21488;SDS011;10906;45.194;5.684;2023-07-08T14:05:37;7.60;;;5.13;;
21488;SDS011;10906;45.194;5.684;2023-07-08T14:08:21;12.25;;;4.93;;
21488;SDS011;10906;45.194;5.684;2023-07-08T14:11:06;9.00;;;4.95;;
21488;SDS011;10906;45.194;5.684;2023-07-08T14:13:51;8.13;;;5.07;;
21488;SDS011;10906;45.194;5.684;2023-07-08T14:16:36;10.25;;;5.30;;
21488;SDS011;10906;45.194;5.684;2023-07-08T14:19:24;7.28;;;4.63;;
21488;SDS011;10906;45.194;5.684;2023-07-08T14:28:49;9.98;;;5.30;;
21488;SDS011;10906;45.194;5.684;2023-07-08T14:31:33;7.63;;;4.85;;
21488;SDS011;10906;45.194;5.684;2023-07-08T14:34:22;10.00;;;4.90;;
21488;SDS011;10906;45.194;5.684;2023-07-08T14:43:48;8.65;;;5.13;;
21488;SDS011;10906;45.194;5.684;2023-07-08T14:46:32;11.82;;;5.63;;
21488;SDS011;10906;45.194;5.684;2023-07-08T14:49:18;11.00;;;4.97;;
21488;SDS011;10906;45.194;5.684;2023-07-08T14:52:04;10.18;;;5.38;;
21488;SDS011;10906;45.194;5.684;2023-07-08T14:54:49;10.82;;;4.70;;
21488;SDS011;10906;45.194;5.684;2023-07-08T14:57:39;8.52;;;4.38;;
21488;SDS011;10906;45.194;5.684;2023-07-08T15:00:29;10.93;;;5.30;;
21488;SDS011;10906;45.194;5.684;2023-07-08T15:03:14;11.15;;;4.95;;
21488;SDS011;10906;45.194;5.684;2023-07-08T15:05:58;10.48;;;4.60;;
21488;SDS011;10906;45.194;5.684;2023-07-08T15:08:43;13.52;;;5.00;;
21488;SDS011;10906;45.194;5.684;2023-07-08T15:11:27;10.43;;;4.97;;
21488;SDS011;10906;45.194;5.684;2023-07-08T15:14:20;6.35;;;4.38;;
21488;SDS011;10906;45.194;5.684;2023-07-08T15:17:11;8.57;;;5.10;;
21488;SDS011;10906;45.194;5.684;2023-07-08T15:19:59;10.18;;;5.28;;
21488;SDS011;10906;45.194;5.684;2023-07-08T15:22:44;12.68;;;5.20;;
21488;SDS011;10906;45.194;5.684;2023-07-08T15:25:29;8.45;;;4.53;;
21488;SDS011;10906;45.194;5.684;2023-07-08T15:28:38;10.05;;;4.72;;
21488;SDS011;10906;45.194;5.684;2023-07-08T15:31:25;13.35;;;5.03;;
21488;SDS011;10906;45.194;5.684;2023-07-08T15:34:17;7.68;;;5.07;;
21488;SDS011;10906;45.194;5.684;2023-07-08T15:37:04;8.98;;;5.18;;
21488;SDS011;10906;45.194;5.684;2023-07-08T15:39:49;11.98;;;4.82;;
21488;SDS011;10906;45.194;5.684;2023-07-08T15:45:56;9.65;;;4.60;;
21488;SDS011;10906;45.194;5.684;2023-07-08T15:48:44;11.98;;;5.13;;
21488;SDS011;10906;45.194;5.684;2023-07-08T15:51:29;6.75;;;5.20;;
21488;SDS011;10906;45.194;5.684;2023-07-08T16:00:16;11.13;;;5.03;;
21488;SDS011;10906;45.194;5.684;2023-07-08T16:03:09;11.30;;;5.50;;
21488;SDS011;10906;45.194;5.684;2023-07-08T16:05:57;8.93;;;4.85;;
21488;SDS011;10906;45.194;5.684;2023-07-08T16:08:43;10.20;;;4.75;;
21488;SDS011;10906;45.194;5.684;2023-07-08T16:11:29;10.70;;;5.13;;
21488;SDS011;10906;45.194;5.684;2023-07-08T16:14:15;13.82;;;5.55;;
21488;SDS011;10906;45.194;5.684;2023-07-08T16:17:01;9.63;;;5.00;;
21488;SDS011;10906;45.194;5.684;2023-07-08T16:19:46;14.18;;;5.72;;
21488;SDS011;10906;45.194;5.684;2023-07-08T16:22:30;7.50;;;4.80;;
21488;SDS011;10906;45.194;5.684;2023-07-08T16:25:16;12.30;;;5.50;;
21488;SDS011;10906;45.194;5.684;2023-07-08T16:28:02;8.10;;;4.82;;
21488;SDS011;10906;45.194;5.684;2023-07-08T16:30:48;10.57;;;5.15;;
21488;SDS011;10906;45.194;5.684;2023-07-08T16:33:33;9.77;;;5.38;;
21488;SDS011;10906;45.194;5.684;2023-07-08T16:36:19;8.88;;;5.28;;
21488;SDS011;10906;45.194;5.684;2023-07-08T16:39:05;14.20;;;5.50;;
21488;SDS011;10906;45.194;5.684;2023-07-08T16:41:50;9.73;;;5.05;;
21488;SDS011;10906;45.194;5.684;2023-07-08T16:44:35;10.75;;;5.32;;
21488;SDS011;10906;45.194;5.684;2023-07-08T16:47:19;12.45;;;5.57;;
21488;SDS011;10906;45.194;5.684;2023-07-08T16:50:04;9.52;;;5.80;;
21488;SDS011;10906;45.194;5.684;2023-07-08T16:52:49;12.40;;;5.05;;
21488;SDS011;10906;45.194;5.684;2023-07-08T16:55:34;10.55;;;4.97;;
21488;SDS011;10906;45.194;5.684;2023-07-08T17:01:14;10.30;;;5.18;;
21488;SDS011;10906;45.194;5.684;2023-07-08T17:04:03;11.15;;;4.85;;
21488;SDS011;10906;45.194;5.684;2023-07-08T17:15:19;10.32;;;5.35;;
21488;SDS011;10906;45.194;5.684;2023-07-08T17:18:17;14.25;;;5.30;;
21488;SDS011;10906;45.194;5.684;2023-07-08T17:21:04;8.32;;;5.03;;
21488;SDS011;10906;45.194;5.684;2023-07-08T17:23:56;11.27;;;5.47;;
21488;SDS011;10906;45.194;5.684;2023-07-08T17:26:41;11.68;;;5.03;;
21488;SDS011;10906;45.194;5.684;2023-07-08T17:29:26;9.75;;;5.68;;
21488;SDS011;10906;45.194;5.684;2023-07-08T17:32:10;8.82;;;5.20;;
21488;SDS011;10906;45.194;5.684;2023-07-08T17:34:55;8.85;;;5.07;;
21488;SDS011;10906;45.194;5.684;2023-07-08T17:37:41;9.75;;;5.07;;
21488;SDS011;10906;45.194;5.684;2023-07-08T17:40:26;11.07;;;5.00;;
21488;SDS011;10906;45.194;5.684;2023-07-08T17:43:11;9.63;;;5.00;;
21488;SDS011;10906;45.194;5.684;2023-07-08T17:45:56;8.27;;;5.05;;
21488;SDS011;10906;45.194;5.684;2023-07-08T17:48:40;8.45;;;4.85;;
21488;SDS011;10906;45.194;5.684;2023-07-08T17:51:30;7.07;;;4.88;;
21488;SDS011;10906;45.194;5.684;2023-07-08T17:54:15;8.07;;;5.25;;
21488;SDS011;10906;45.194;5.684;2023-07-08T17:56:59;12.65;;;5.45;;
21488;SDS011;10906;45.194;5.684;2023-07-08T17:59:45;10.27;;;4.60;;
21488;SDS011;10906;45.194;5.684;2023-07-08T18:02:30;8.95;;;5.25;;
21488;SDS011;10906;45.194;5.684;2023-07-08T18:05:19;7.72;;;5.18;;
21488;SDS011;10906;45.194;5.684;2023-07-08T18:08:05;6.65;;;4.72;;
21488;SDS011;10906;45.194;5.684;2023-07-08T18:16:28;8.80;;;5.07;;
21488;SDS011;10906;45.194;5.684;2023-07-08T18:26:51;11.38;;;6.80;;
21488;SDS011;10906;45.194;5.684;2023-07-08T18:29:35;12.63;;;7.63;;
21488;SDS011;10906;45.194;5.684;2023-07-08T18:32:19;16.27;;;6.50;;
21488;SDS011;10906;45.194;5.684;2023-07-08T18:35:10;8.80;;;6.40;;
21488;SDS011;10906;45.194;5.684;2023-07-08T18:38:05;21.50;;;9.85;;
21488;SDS011;10906;45.194;5.684;2023-07-08T18:40:49;12.75;;;9.48;;
21488;SDS011;10906;45.194;5.684;2023-07-08T18:43:34;12.45;;;9.35;;
21488;SDS011;10906;45.194;5.684;2023-07-08T18:46:19;15.32;;;8.05;;
21488;SDS011;10906;45.194;5.684;2023-07-08T18:49:03;9.75;;;6.57;;
21488;SDS011;10906;45.194;5.684;2023-07-08T18:51:48;11.15;;;7.10;;
21488;SDS011;10906;45.194;5.684;2023-07-08T18:54:33;14.48;;;6.47;;
21488;SDS011;10906;45.194;5.684;2023-07-08T18:57:17;11.07;;;5.55;;
21488;SDS011;10906;45.194;5.684;2023-07-08T19:00:02;10.38;;;5.60;;
21488;SDS011;10906;45.194;5.684;2023-07-08T19:02:57;8.18;;;5.68;;
21488;SDS011;10906;45.194;5.684;2023-07-08T19:05:44;10.30;;;5.85;;
21488;SDS011;10906;45.194;5.684;2023-07-08T19:08:28;10.30;;;5.65;;
21488;SDS011;10906;45.194;5.684;2023-07-08T19:11:18;8.32;;;4.90;;
21488;SDS011;10906;45.194;5.684;2023-07-08T19:14:08;10.82;;;5.82;;
21488;SDS011;10906;45.194;5.684;2023-07-08T19:16:57;10.23;;;5.65;;
21488;SDS011;10906;45.194;5.684;2023-07-08T19:19:41;14.02;;;5.25;;
21488;SDS011;10906;45.194;5.684;2023-07-08T19:24:54;8.40;;;5.55;;
21488;SDS011;10906;45.194;5.684;2023-07-08T19:27:39;11.40;;;6.47;;
21488;SDS011;10906;45.194;5.684;2023-07-08T19:30:24;10.23;;;6.05;;
21488;SDS011;10906;45.194;5.684;2023-07-08T19:40:48;8.35;;;4.72;;
21488;SDS011;10906;45.194;5.684;2023-07-08T19:43:34;8.95;;;5.13;;
21488;SDS011;10906;45.194;5.684;2023-07-08T19:46:19;8.93;;;5.45;;
21488;SDS011;10906;45.194;5.684;2023-07-08T19:49:04;8.63;;;5.05;;
21488;SDS011;10906;45.194;5.684;2023-07-08T19:51:48;7.32;;;5.57;;
21488;SDS011;10906;45.194;5.684;2023-07-08T19:54:33;8.93;;;5.55;;
21488;SDS011;10906;45.194;5.684;2023-07-08T19:57:18;7.50;;;5.03;;
21488;SDS011;10906;45.194;5.684;2023-07-08T20:00:03;10.25;;;5.78;;
21488;SDS011;10906;45.194;5.684;2023-07-08T20:02:48;7.68;;;5.00;;
21488;SDS011;10906;45.194;5.684;2023-07-08T20:05:34;8.43;;;5.25;;
21488;SDS011;10906;45.194;5.684;2023-07-08T20:08:24;9.55;;;5.53;;
21488;SDS011;10906;45.194;5.684;2023-07-08T20:11:15;12.43;;;5.60;;
21488;SDS011;10906;45.194;5.684;2023-07-08T20:16:28;7.75;;;4.95;;
21488;SDS011;10906;45.194;5.684;2023-07-08T20:19:22;12.30;;;5.60;;
21488;SDS011;10906;45.194;5.684;2023-07-08T20:22:12;10.57;;;5.47;;
21488;SDS011;10906;45.194;5.684;2023-07-08T20:24:58;7.95;;;5.50;;
21488;SDS011;10906;45.194;5.684;2023-07-08T20:27:44;9.27;;;6.00;;
21488;SDS011;10906;45.194;5.684;2023-07-08T20:30:30;12.07;;;6.38;;
21488;SDS011;10906;45.194;5.684;2023-07-08T20:33:15;11.90;;;6.25;;
21488;SDS011;10906;45.194;5.684;2023-07-08T20:58:13;11.48;;;5.22;;
21488;SDS011;10906;45.194;5.684;2023-07-08T21:00:59;14.05;;;5.93;;
21488;SDS011;10906;45.194;5.684;2023-07-08T21:03:44;7.75;;;5.60;;
21488;SDS011;10906;45.194;5.684;2023-07-08T21:06:29;9.90;;;6.20;;
21488;SDS011;10906;45.194;5.684;2023-07-08T21:09:18;8.27;;;5.45;;
21488;SDS011;10906;45.194;5.684;2023-07-08T21:12:04;8.85;;;5.95;;
21488;SDS011;10906;45.194;5.684;2023-07-08T21:14:49;15.02;;;6.45;;
21488;SDS011;10906;45.194;5.684;2023-07-08T21:17:33;9.48;;;5.68;;
21488;SDS011;10906;45.194;5.684;2023-07-08T21:20:22;11.23;;;6.00;;
21488;SDS011;10906;45.194;5.684;2023-07-08T21:23:14;12.27;;;5.95;;
21488;SDS011;10906;45.194;5.684;2023-07-08T21:26:00;7.63;;;5.43;;
21488;SDS011;10906;45.194;5.684;2023-07-08T21:28:45;8.88;;;5.72;;
21488;SDS011;10906;45.194;5.684;2023-07-08T21:31:31;7.45;;;5.75;;
21488;SDS011;10906;45.194;5.684;2023-07-08T21:34:16;8.63;;;5.50;;
21488;SDS011;10906;45.194;5.684;2023-07-08T21:37:01;8.43;;;5.55;;
21488;SDS011;10906;45.194;5.684;2023-07-08T21:39:45;10.90;;;6.35;;
21488;SDS011;10906;45.194;5.684;2023-07-08T21:42:30;7.95;;;5.57;;
21488;SDS011;10906;45.194;5.684;2023-07-08T21:45:21;11.25;;;4.90;;
21488;SDS011;10906;45.194;5.684;2023-07-08T21:48:09;7.95;;;5.45;;
21488;SDS011;10906;45.194;5.684;2023-07-08T21:50:55;8.00;;;5.28;;
21488;SDS011;10906;45.194;5.684;2023-07-08T21:53:43;9.25;;;5.30;;
21488;SDS011;10906;45.194;5.684;2023-07-08T21:56:31;8.77;;;5.10;;
21488;SDS011;10906;45.194;5.684;2023-07-08T21:59:17;10.73;;;5.07;;
